createdAt,value
2023-03-30T01:51:03.155Z,10.50
2023-03-30T07:32:50.992Z,11.30
2023-03-30T07:35:18.294Z,11.70
2023-03-30T07:37:45.634Z,11.70
2023-03-30T07:40:12.808Z,11.70
2023-03-30T07:42:40.187Z,11.70
2023-03-30T07:45:08.077Z,11.70
2023-03-30T07:47:34.726Z,11.70
2023-03-30T07:50:01.565Z,11.70
2023-03-30T07:52:28.235Z,11.70
2023-03-30T07:54:55.497Z,11.70
2023-03-30T07:57:22.947Z,11.70
2023-03-30T08:39:08.712Z,11.80
2023-03-30T08:41:44.319Z,12.90
2023-03-30T08:44:11.024Z,12.90
2023-03-30T08:46:38.327Z,12.90
2023-03-30T08:49:12.994Z,12.80
2023-03-30T08:51:42.374Z,12.90
2023-03-30T08:59:32.949Z,13.00
2023-03-30T09:02:16.335Z,13.30
2023-03-30T09:05:02.128Z,13.50
2023-03-30T09:07:38.419Z,13.60
2023-03-30T09:10:11.954Z,13.70
2023-03-30T09:28:27.525Z,13.70
2023-03-30T09:36:27.269Z,14.40
2023-03-30T09:38:54.063Z,15.00
2023-03-30T09:41:46.758Z,15.30
2023-03-30T09:44:33.437Z,15.30
2023-03-30T09:47:02.034Z,15.40
2023-03-30T09:49:29.567Z,15.60
2023-03-30T11:23:57.146Z,15.70
2023-03-30T11:26:42.007Z,14.30
2023-03-30T11:29:27.937Z,14.00
2023-03-30T11:32:35.014Z,13.80
2023-03-30T11:37:48.149Z,13.50
2023-03-30T11:40:23.194Z,12.70
2023-03-30T11:42:52.014Z,12.50
2023-03-30T11:45:25.075Z,12.30
2023-03-30T11:48:01.134Z,12.10
2023-03-30T11:50:49.243Z,12.00
2023-03-30T11:53:44.405Z,12.00
2023-03-30T11:56:20.772Z,11.90
2023-03-30T11:59:06.727Z,11.70
2023-03-30T12:02:05.660Z,11.60
2023-03-30T12:15:06.118Z,11.30
2023-03-30T12:18:11.767Z,10.70
2023-03-30T12:20:55.435Z,10.50
2023-03-30T12:23:48.561Z,10.50
2023-03-30T12:26:21.038Z,10.40
2023-03-30T12:31:49.706Z,10.30
2023-03-30T12:34:17.172Z,10.30
2023-03-30T12:36:49.308Z,10.30
2023-03-30T12:39:31.037Z,10.20
2023-03-30T12:42:04.425Z,10.30
2023-03-30T12:44:38.941Z,10.30
2023-03-30T12:47:30.223Z,10.30
2023-03-30T12:50:27.415Z,10.30
2023-03-30T12:53:20.468Z,10.30
2023-03-30T12:55:59.988Z,10.30
2023-03-30T12:59:08.621Z,10.30
2023-03-30T13:01:38.129Z,10.30
2023-03-30T13:04:16.924Z,10.40
2023-03-30T13:07:01.859Z,10.40
2023-03-30T13:09:32.985Z,10.40
2023-03-30T13:11:59.569Z,10.40
2023-03-30T13:14:35.392Z,10.40
2023-03-30T13:17:02.124Z,10.30
2023-03-30T13:19:34.536Z,10.30
2023-03-30T13:22:13.592Z,10.30
2023-03-30T13:25:03.729Z,10.50
2023-03-30T13:27:36.472Z,10.50
2023-03-30T13:30:09.192Z,10.60
2023-03-30T13:33:15.594Z,10.50
2023-03-30T13:35:54.751Z,10.60
2023-03-30T13:38:49.572Z,10.60
2023-03-30T13:41:39.247Z,10.60
2023-03-30T13:44:14.692Z,10.60
2023-03-30T13:46:51.205Z,10.70
2023-03-30T13:49:36.617Z,10.60
2023-03-30T13:52:10.749Z,10.50
2023-03-30T13:54:40.886Z,10.60
2023-03-30T13:57:17.240Z,10.60
2023-03-30T13:59:55.605Z,10.60
2023-03-30T14:02:23.704Z,10.60
2023-03-30T14:04:50.780Z,10.60
2023-03-30T14:07:22.512Z,10.60
2023-03-30T14:10:06.391Z,10.60
2023-03-30T14:12:35.312Z,10.60
2023-03-30T14:15:03.299Z,10.70
2023-03-30T14:17:30.016Z,10.70
2023-03-30T14:20:21.165Z,10.70
2023-03-30T14:22:50.352Z,10.80
2023-03-30T14:25:26.137Z,10.80
2023-03-30T14:27:53.106Z,10.90
2023-03-30T14:30:19.666Z,10.90
2023-03-30T14:32:46.596Z,10.90
2023-03-30T14:35:19.382Z,11.00
2023-03-30T14:37:52.058Z,10.90
2023-03-30T14:40:21.918Z,11.10
2023-03-30T16:08:28.987Z,11.10
2023-03-30T16:18:17.124Z,12.60
2023-03-30T16:23:10.941Z,13.90
2023-03-30T16:25:44.662Z,14.50
2023-03-30T16:28:18.267Z,14.10
2023-03-30T16:30:47.889Z,14.40
2023-03-30T16:33:14.634Z,14.00
2023-03-30T16:35:41.376Z,14.30
2023-03-30T16:38:18.819Z,14.10
2023-03-30T16:45:40.566Z,13.60
2023-03-30T16:48:07.583Z,12.60
2023-03-30T16:50:47.503Z,12.40
2023-03-30T16:55:41.338Z,12.40
2023-03-30T16:58:11.001Z,12.10
2023-03-30T17:00:49.244Z,12.00
2023-03-30T17:03:17.202Z,11.90
2023-03-30T17:05:48.396Z,11.80
2023-03-30T17:08:23.439Z,11.80
2023-03-30T17:10:51.233Z,11.70
2023-03-30T17:13:17.903Z,11.60
2023-03-30T17:15:44.594Z,11.70
2023-03-30T17:18:17.631Z,11.60
2023-03-30T17:20:51.853Z,11.60
2023-03-30T17:23:20.216Z,11.60
2023-03-30T17:25:49.443Z,11.60
2023-03-30T17:28:25.451Z,11.60
2023-03-30T17:30:54.122Z,11.60
2023-03-30T17:33:21.830Z,11.50
2023-03-30T17:35:58.224Z,11.60
2023-03-30T17:38:24.976Z,11.50
2023-03-30T17:40:51.738Z,11.60
2023-03-30T17:43:18.441Z,11.50
2023-03-30T17:45:46.777Z,11.50
2023-03-30T17:48:19.198Z,11.50
2023-03-30T17:50:49.308Z,11.50
2023-03-30T17:53:18.000Z,11.30
2023-03-30T17:55:46.557Z,11.30
2023-03-30T17:58:20.880Z,11.30
2023-03-30T18:00:48.540Z,11.20
2023-03-30T18:03:16.733Z,11.30
2023-03-30T18:05:46.947Z,11.20
2023-03-30T18:08:19.070Z,11.20
2023-03-30T18:10:48.009Z,11.30
2023-03-30T18:13:21.128Z,11.20
2023-03-30T18:15:49.908Z,11.20
2023-03-30T18:18:22.873Z,11.20
2023-03-30T18:20:51.466Z,11.20
2023-03-30T18:23:18.694Z,11.10
2023-03-30T18:25:45.473Z,11.10
2023-03-30T18:28:26.646Z,11.10
2023-03-30T18:30:55.430Z,11.10
2023-03-30T18:33:22.260Z,11.20
2023-03-30T18:35:51.036Z,11.20
2023-03-30T18:38:20.458Z,11.10
2023-03-30T18:40:49.748Z,11.20
2023-03-30T18:43:17.413Z,11.20
2023-03-30T18:45:49.299Z,11.20
2023-03-30T18:48:18.596Z,11.20
2023-03-30T18:50:50.738Z,11.10
2023-03-30T18:53:20.232Z,11.00
2023-03-30T18:55:49.575Z,11.00
2023-03-30T18:58:21.810Z,11.00
2023-03-30T19:00:50.134Z,11.00
2023-03-30T19:03:18.565Z,10.90
2023-03-30T19:05:45.776Z,10.90
2023-03-30T19:08:17.908Z,10.90
2023-03-30T20:15:00.564Z,10.90
